Du har inga inställningar för hoppväder.nu

Hoppväder.nu

Senast uppdaterat 07:23

UTC-tid

2020-01-29 kl. 06:23


Sol och måne

Solen går upp 8:19 och går ner 16:25 (beräknade cirkatider)
Nästa fullmåne blir om 11 dagar (2020-02-09)

METAR

ESGG (Landvetter)
(33 minuter sedan)
ESGG 290550Z 20012KT 8000 BKN006 OVC019 03/02 Q0985 RERA RWY 21 WET OR WATER PATCHES 51-100 PCT BA GOOD=



ESGP (Säve)
ESGP NIL=



ESIB (Såtenäs)
(63 minuter sedan)
ESIB 290520Z 16008KT 9999 BKN011 03/03 Q0985=



ESGT (Trollhättan/Vänersborg)
(33 minuter sedan)
ESGT 290550Z 17006KT 9999 FEW009 OVC020 03/02 Q0985 RERA=






TAF

ESGG (Landvetter)
(53 minuter sedan)
ESGG 290530Z 2906/3006 20008KT 8000 -SHRA SCT004 OVC015 TEMPO 2906/3006 2000 -SHRA BR BKN006 BKN015TCU=



ESGP (Säve)
ESGP



ESIB (Såtenäs)
(33 minuter sedan)
ESIB 290550Z 2906/2915 15008KT 9999 BKN020 PROB30 TEMPO 2906/2909 18006KT 2000 DZ BKN004 TEMPO 2906/2915 5000 -RA BKN008 RMK MIL=



ESGT (Trollhättan/Vänersborg)
(53 minuter sedan)
ESGT 290530Z 2906/2915 18008KT 9000 -SHRA SCT005 BKN015 TEMPO 2906/2915 4000 SHRA BKN005=





Kodnycklar till TAF och METAR






LHP

(Vårgårda är område I4c i Norra delen)







Spotting

Hur fungerar spotthjälpen och Vindkartan?

Markvind är ca 0 m/s.
Vind på 600 m ca 0 m/s.
Vind på 1500 m ca 0 m/s.
Vind på 3000 m ca 0 m/s.
Filip Martin flyger ca 54 m/s över marken på finalen.
Du driver ca 0 m bakåt i frifall. (0 m)
Lämplig spot är 5 sekunder eller 270 m innan gropen.
(-5s eller -270 m)
För små grupper eller ensamhoppare bör man vänta 3-4 sekunder mellan grupperna.
För större grupper bör man vänta 6-7 sekunder mellan grupperna.


Vindkartan

Senast uppdaterad 07:23




All data kommer från LFV.se